»·PEaware :: SWA5687 KLAS-KLAX

SWA5687 :: KLAS-KLAX

FLIGHT INFORMATION

Flight Status: Arrived
Operator:
Southwest Airlines
More flights by this operator :: More flights under this callsign
Pilot: Cody B. (17747)
Aircraft: BOEING 737-800
(B738)
More flights by this aircraft type
Origin: KLAS McCarran Intl
United States
Destination: KLAX Los Angeles Intl
United States
More flights between these airports :: More routes between these airports
Route: BOACH8 RIKKI SHTNR ANJLL3
File this flight plan on PilotEdge
Remarks:
Altitude:
(Current/Filed)
28,000ft
Speed:
(Current/Filed)
479kts
Departed: 07-Jul-18 11:22 AM
Arrived: 07-Jul-18 12:05 PM
Distance/Time
Traveled:
205nm/0:43
Distance/Time
To Go:
Arrived

Flight Plot

Page will automatically refresh every two minutes.

Flight plan parsing failed; only flown route is shown


Map Options




Map Legend


Flown Route
Filed Route
Departure Airport
Arrival Airport
Navaid (VOR, NDB)
Fix

Horizontal Profiles

Position Reports

Time Latitude Longitude Heading Altitude Ground
Speed
07-Jul-18 10:54 36.079926 -115.147119 57 2149ft 0kts
07-Jul-18 10:55 36.079926 -115.147119 57 2149ft 0kts
07-Jul-18 10:56 36.079926 -115.147119 57 2149ft 0kts
07-Jul-18 10:57 36.079926 -115.147119 57 2149ft 0kts
07-Jul-18 10:58 36.079926 -115.147119 57 2149ft 0kts
07-Jul-18 10:59 36.079926 -115.147119 57 2149ft 0kts
07-Jul-18 11:00 36.079926 -115.147119 57 2149ft 0kts
07-Jul-18 11:01 36.079926 -115.147119 57 2149ft 0kts
07-Jul-18 11:02 36.079926 -115.147119 57 2149ft 0kts
07-Jul-18 11:03 36.079926 -115.147119 57 2149ft 0kts
07-Jul-18 11:04 36.079926 -115.147119 57 2149ft 0kts
07-Jul-18 11:05 36.079926 -115.147119 57 2149ft 0kts
07-Jul-18 11:06 36.079926 -115.147119 57 2149ft 0kts
07-Jul-18 11:07 36.079926 -115.147119 57 2149ft 0kts
07-Jul-18 11:08 36.079845 -115.147768 128 2149ft 2kts
07-Jul-18 11:09 36.080010 -115.147910 155 2149ft 0kts
07-Jul-18 11:10 36.080010 -115.147910 155 2149ft 0kts
07-Jul-18 11:11 36.079671 -115.147730 157 2149ft 6kts
07-Jul-18 11:12 36.079270 -115.147511 155 2149ft 0kts
07-Jul-18 11:13 36.079269 -115.147511 155 2149ft 0kts
07-Jul-18 11:14 36.078795 -115.147205 146 2149ft 7kts
07-Jul-18 11:15 36.078291 -115.143675 94 2148ft 11kts
07-Jul-18 11:16 36.078243 -115.139371 90 2149ft 13kts
07-Jul-18 11:17 36.078255 -115.134578 89 2149ft 14kts
07-Jul-18 11:18 36.078254 -115.129724 89 2149ft 13kts
07-Jul-18 11:19 36.078264 -115.125633 90 2149ft 10kts
07-Jul-18 11:20 36.078136 -115.122590 121 2149ft 8kts
07-Jul-18 11:21 36.077339 -115.121438 158 2149ft 0kts
07-Jul-18 11:22 36.076863 -115.121333 178 2149ft 5kts
07-Jul-18 11:23 36.076372 -115.126720 269 2149ft 74kts
07-Jul-18 11:24 36.076815 -115.180412 268 3149ft 190kts
07-Jul-18 11:25 36.070508 -115.248648 230 5282ft 219kts
07-Jul-18 11:26 36.011077 -115.284555 197 6974ft 270kts
07-Jul-18 11:27 35.937621 -115.303336 181 8638ft 271kts
07-Jul-18 11:27 35.874696 -115.310799 186 10454ft 294kts
07-Jul-18 11:28 35.789090 -115.306412 175 12347ft 328kts
07-Jul-18 11:29 35.696590 -115.296065 174 14620ft 344kts
07-Jul-18 11:30 35.600549 -115.295651 182 16983ft 351kts
07-Jul-18 11:31 35.502409 -115.304209 198 19067ft 361kts
07-Jul-18 11:32 35.415224 -115.364638 211 19119ft 361kts
07-Jul-18 11:33 35.334426 -115.424263 210 19473ft 368kts
07-Jul-18 11:34 35.247027 -115.488088 210 21498ft 373kts
07-Jul-18 11:35 35.156788 -115.553596 209 23140ft 383kts
07-Jul-18 11:36 35.074657 -115.637881 226 24694ft 394kts
07-Jul-18 11:37 35.001829 -115.732446 225 26108ft 401kts
07-Jul-18 11:38 34.924932 -115.831073 224 27482ft 407kts
07-Jul-18 11:39 34.852735 -115.923125 224 28128ft 423kts
07-Jul-18 11:40 34.769011 -116.029369 224 28126ft 451kts
07-Jul-18 11:41 34.682085 -116.140293 224 28120ft 459kts
07-Jul-18 11:42 34.594302 -116.251922 224 28120ft 458kts
07-Jul-18 11:43 34.506540 -116.363096 224 28120ft 457kts
07-Jul-18 11:44 34.421712 -116.471024 229 28109ft 426kts
07-Jul-18 11:45 34.365625 -116.598144 242 28182ft 428kts
07-Jul-18 11:46 34.317358 -116.716778 242 27230ft 426kts
07-Jul-18 11:47 34.267638 -116.840890 242 24733ft 410kts
07-Jul-18 11:49 34.218857 -116.961999 242 22353ft 401kts
07-Jul-18 11:50 34.181406 -117.084709 251 19937ft 397kts
07-Jul-18 11:51 34.149401 -117.205511 250 17442ft 377kts
07-Jul-18 11:52 34.117103 -117.323962 250 15139ft 373kts
07-Jul-18 11:53 34.087280 -117.438001 252 13052ft 340kts
07-Jul-18 11:54 34.058624 -117.538482 245 11555ft 296kts
07-Jul-18 11:55 34.026552 -117.627619 245 10590ft 296kts
07-Jul-18 11:56 34.004401 -117.718606 261 9487ft 288kts
07-Jul-18 11:57 33.994753 -117.812920 262 8145ft 287kts
07-Jul-18 11:58 33.985417 -117.907314 261 6887ft 282kts
07-Jul-18 11:59 33.976513 -117.997892 261 5851ft 263kts
07-Jul-18 12:00 33.968211 -118.080231 261 4934ft 247kts
07-Jul-18 12:01 33.960579 -118.161194 263 3604ft 220kts
07-Jul-18 12:02 33.953407 -118.227144 261 2750ft 188kts
07-Jul-18 12:03 33.947599 -118.283920 261 1808ft 165kts
07-Jul-18 12:04 33.942393 -118.334539 264 950ft 154kts
07-Jul-18 12:05 33.937030 -118.385297 266 146ft 164kts
07-Jul-18 12:06 33.936210 -118.403522 285 133ft 1kts
07-Jul-18 12:07 33.936213 -118.403537 285 133ft 0kts
07-Jul-18 12:08 33.936274 -118.403989 275 133ft 8kts
07-Jul-18 12:09 33.936011 -118.407043 263 133ft 8kts
07-Jul-18 12:10 33.936582 -118.408941 344 133ft 8kts
07-Jul-18 12:11 33.937915 -118.409149 354 133ft 0kts
07-Jul-18 12:12 33.937916 -118.409149 354 133ft 0kts
07-Jul-18 12:13 33.938570 -118.410537 263 133ft 10kts
07-Jul-18 12:14 33.940487 -118.411925 353 133ft 11kts
07-Jul-18 12:15 33.944589 -118.412515 353 133ft 16kts
07-Jul-18 12:16 33.947259 -118.411538 76 133ft 14kts
07-Jul-18 12:17 33.947814 -118.406242 83 133ft 15kts
07-Jul-18 12:18 33.947819 -118.402638 164 133ft 7kts
07-Jul-18 12:19 33.947080 -118.402074 96 133ft 3kts
07-Jul-18 12:20 33.947064 -118.401814 93 133ft 0kts

Navigation Log

Ident Type
Flight plan parsing failed, navigation log unavailable